sensor_id;sensor_type;location;lat;lon;timestamp;P1;durP1;ratioP1;P2;durP2;ratioP2
39822;SDS011;25499;53.958;10.970;2023-06-05T04:38:24;12.70;;;8.15;;
39822;SDS011;25499;53.958;10.970;2023-06-05T04:40:51;9.98;;;8.60;;
39822;SDS011;25499;53.958;10.970;2023-06-05T04:43:18;9.20;;;7.93;;
39822;SDS011;25499;53.958;10.970;2023-06-05T04:45:44;10.27;;;8.32;;
39822;SDS011;25499;53.958;10.970;2023-06-05T04:48:13;9.73;;;7.88;;
39822;SDS011;25499;53.958;10.970;2023-06-05T04:50:39;11.63;;;8.10;;
39822;SDS011;25499;53.958;10.970;2023-06-05T04:53:07;12.55;;;8.48;;
39822;SDS011;25499;53.958;10.970;2023-06-05T04:55:35;11.50;;;7.82;;
39822;SDS011;25499;53.958;10.970;2023-06-05T04:58:03;15.00;;;8.85;;
39822;SDS011;25499;53.958;10.970;2023-06-05T05:00:31;9.07;;;7.78;;
39822;SDS011;25499;53.958;10.970;2023-06-05T05:02:58;10.38;;;7.15;;
39822;SDS011;25499;53.958;10.970;2023-06-05T05:05:25;7.90;;;7.10;;
39822;SDS011;25499;53.958;10.970;2023-06-05T05:07:51;7.80;;;6.60;;
39822;SDS011;25499;53.958;10.970;2023-06-05T05:10:18;11.82;;;7.43;;
39822;SDS011;25499;53.958;10.970;2023-06-05T05:12:46;9.18;;;7.15;;
39822;SDS011;25499;53.958;10.970;2023-06-05T05:15:13;10.68;;;8.02;;
39822;SDS011;25499;53.958;10.970;2023-06-05T05:17:40;9.43;;;7.50;;
39822;SDS011;25499;53.958;10.970;2023-06-05T05:20:07;9.50;;;7.18;;
39822;SDS011;25499;53.958;10.970;2023-06-05T05:22:34;11.82;;;7.90;;
39822;SDS011;25499;53.958;10.970;2023-06-05T05:25:01;8.95;;;7.03;;
39822;SDS011;25499;53.958;10.970;2023-06-05T05:27:28;11.77;;;7.38;;
39822;SDS011;25499;53.958;10.970;2023-06-05T05:29:56;9.65;;;6.72;;
39822;SDS011;25499;53.958;10.970;2023-06-05T05:32:23;11.23;;;6.70;;
39822;SDS011;25499;53.958;10.970;2023-06-05T05:34:51;9.13;;;6.05;;
39822;SDS011;25499;53.958;10.970;2023-06-05T05:37:17;12.13;;;7.15;;
39822;SDS011;25499;53.958;10.970;2023-06-05T05:39:44;13.48;;;7.65;;
39822;SDS011;25499;53.958;10.970;2023-06-05T05:42:11;13.70;;;6.95;;
39822;SDS011;25499;53.958;10.970;2023-06-05T05:44:38;12.95;;;7.03;;
39822;SDS011;25499;53.958;10.970;2023-06-05T05:47:08;11.43;;;6.85;;
39822;SDS011;25499;53.958;10.970;2023-06-05T05:49:35;12.88;;;7.60;;
39822;SDS011;25499;53.958;10.970;2023-06-05T05:52:02;12.77;;;6.85;;
39822;SDS011;25499;53.958;10.970;2023-06-05T05:54:29;17.05;;;7.35;;
39822;SDS011;25499;53.958;10.970;2023-06-05T05:56:55;13.93;;;6.65;;
39822;SDS011;25499;53.958;10.970;2023-06-05T05:59:22;12.77;;;6.68;;
39822;SDS011;25499;53.958;10.970;2023-06-05T06:01:49;9.93;;;6.57;;
39822;SDS011;25499;53.958;10.970;2023-06-05T06:04:19;13.65;;;7.05;;
39822;SDS011;25499;53.958;10.970;2023-06-05T06:06:46;9.88;;;6.97;;
39822;SDS011;25499;53.958;10.970;2023-06-05T06:09:17;11.43;;;6.63;;
39822;SDS011;25499;53.958;10.970;2023-06-05T06:11:44;12.95;;;7.18;;
39822;SDS011;25499;53.958;10.970;2023-06-05T06:14:11;13.35;;;7.20;;
39822;SDS011;25499;53.958;10.970;2023-06-05T06:16:38;10.27;;;6.63;;
39822;SDS011;25499;53.958;10.970;2023-06-05T06:19:05;16.67;;;6.90;;
39822;SDS011;25499;53.958;10.970;2023-06-05T06:21:33;12.10;;;6.88;;
39822;SDS011;25499;53.958;10.970;2023-06-05T06:24:00;9.45;;;6.07;;
39822;SDS011;25499;53.958;10.970;2023-06-05T06:26:27;12.63;;;6.13;;
39822;SDS011;25499;53.958;10.970;2023-06-05T06:28:54;12.45;;;6.22;;
39822;SDS011;25499;53.958;10.970;2023-06-05T06:31:22;9.98;;;5.82;;
39822;SDS011;25499;53.958;10.970;2023-06-05T06:33:49;9.20;;;5.43;;
39822;SDS011;25499;53.958;10.970;2023-06-05T06:36:16;10.38;;;5.00;;
39822;SDS011;25499;53.958;10.970;2023-06-05T06:38:44;9.45;;;4.95;;
39822;SDS011;25499;53.958;10.970;2023-06-05T06:41:11;11.57;;;5.38;;
39822;SDS011;25499;53.958;10.970;2023-06-05T06:43:38;7.43;;;5.32;;
39822;SDS011;25499;53.958;10.970;2023-06-05T06:46:05;8.20;;;5.38;;
39822;SDS011;25499;53.958;10.970;2023-06-05T06:48:31;10.20;;;5.30;;
39822;SDS011;25499;53.958;10.970;2023-06-05T06:50:58;10.23;;;5.30;;
39822;SDS011;25499;53.958;10.970;2023-06-05T06:53:25;8.40;;;5.28;;
39822;SDS011;25499;53.958;10.970;2023-06-05T06:55:53;8.43;;;5.47;;
39822;SDS011;25499;53.958;10.970;2023-06-05T06:58:20;12.50;;;5.18;;
39822;SDS011;25499;53.958;10.970;2023-06-05T07:00:47;7.78;;;5.60;;
39822;SDS011;25499;53.958;10.970;2023-06-05T07:03:14;9.23;;;5.05;;
39822;SDS011;25499;53.958;10.970;2023-06-05T07:05:41;10.20;;;5.15;;
39822;SDS011;25499;53.958;10.970;2023-06-05T07:08:07;10.05;;;4.78;;
39822;SDS011;25499;53.958;10.970;2023-06-05T07:10:34;8.43;;;4.50;;
39822;SDS011;25499;53.958;10.970;2023-06-05T07:13:02;7.78;;;4.85;;
39822;SDS011;25499;53.958;10.970;2023-06-05T07:15:29;7.28;;;4.53;;
39822;SDS011;25499;53.958;10.970;2023-06-05T07:17:56;7.28;;;4.55;;
39822;SDS011;25499;53.958;10.970;2023-06-05T07:20:22;5.93;;;4.35;;
39822;SDS011;25499;53.958;10.970;2023-06-05T07:22:49;10.82;;;4.63;;
39822;SDS011;25499;53.958;10.970;2023-06-05T07:25:16;11.25;;;4.90;;
39822;SDS011;25499;53.958;10.970;2023-06-05T07:27:46;6.37;;;3.87;;
39822;SDS011;25499;53.958;10.970;2023-06-05T07:30:14;6.15;;;3.78;;
39822;SDS011;25499;53.958;10.970;2023-06-05T07:32:41;6.70;;;4.40;;
39822;SDS011;25499;53.958;10.970;2023-06-05T07:35:10;10.77;;;4.50;;
39822;SDS011;25499;53.958;10.970;2023-06-05T07:37:37;5.22;;;3.83;;
39822;SDS011;25499;53.958;10.970;2023-06-05T07:40:06;7.70;;;4.00;;
39822;SDS011;25499;53.958;10.970;2023-06-05T07:42:33;6.45;;;4.10;;
39822;SDS011;25499;53.958;10.970;2023-06-05T07:45:00;8.63;;;3.90;;
39822;SDS011;25499;53.958;10.970;2023-06-05T07:47:30;28.35;;;6.05;;
39822;SDS011;25499;53.958;10.970;2023-06-05T07:49:57;8.40;;;3.72;;
39822;SDS011;25499;53.958;10.970;2023-06-05T07:52:25;6.82;;;3.53;;
39822;SDS011;25499;53.958;10.970;2023-06-05T07:54:51;8.68;;;4.20;;
39822;SDS011;25499;53.958;10.970;2023-06-05T07:57:18;7.50;;;3.30;;
39822;SDS011;25499;53.958;10.970;2023-06-05T07:59:46;7.30;;;3.20;;
39822;SDS011;25499;53.958;10.970;2023-06-05T08:02:14;8.23;;;3.40;;
39822;SDS011;25499;53.958;10.970;2023-06-05T08:04:43;6.53;;;2.95;;
39822;SDS011;25499;53.958;10.970;2023-06-05T08:07:09;7.95;;;2.97;;
39822;SDS011;25499;53.958;10.970;2023-06-05T08:09:36;6.18;;;2.88;;
39822;SDS011;25499;53.958;10.970;2023-06-05T08:12:03;10.50;;;2.97;;
39822;SDS011;25499;53.958;10.970;2023-06-05T08:14:30;7.03;;;3.40;;
39822;SDS011;25499;53.958;10.970;2023-06-05T08:16:57;5.95;;;2.88;;
39822;SDS011;25499;53.958;10.970;2023-06-05T08:19:25;6.35;;;3.40;;
39822;SDS011;25499;53.958;10.970;2023-06-05T08:21:53;9.05;;;3.13;;
39822;SDS011;25499;53.958;10.970;2023-06-05T08:24:21;7.03;;;2.85;;
39822;SDS011;25499;53.958;10.970;2023-06-05T08:26:48;8.13;;;3.17;;
39822;SDS011;25499;53.958;10.970;2023-06-05T08:29:15;4.65;;;2.78;;
39822;SDS011;25499;53.958;10.970;2023-06-05T08:31:42;7.50;;;3.08;;
39822;SDS011;25499;53.958;10.970;2023-06-05T08:34:08;6.97;;;2.63;;
39822;SDS011;25499;53.958;10.970;2023-06-05T08:36:35;7.75;;;2.88;;
39822;SDS011;25499;53.958;10.970;2023-06-05T08:39:03;6.35;;;2.80;;
39822;SDS011;25499;53.958;10.970;2023-06-05T08:41:30;5.55;;;2.47;;
39822;SDS011;25499;53.958;10.970;2023-06-05T08:43:59;6.72;;;2.90;;
39822;SDS011;25499;53.958;10.970;2023-06-05T08:46:27;5.05;;;2.70;;
39822;SDS011;25499;53.958;10.970;2023-06-05T08:48:56;5.87;;;2.50;;
39822;SDS011;25499;53.958;10.970;2023-06-05T08:51:23;3.67;;;2.00;;
39822;SDS011;25499;53.958;10.970;2023-06-05T08:53:51;4.93;;;2.15;;
39822;SDS011;25499;53.958;10.970;2023-06-05T08:56:22;5.60;;;2.50;;
39822;SDS011;25499;53.958;10.970;2023-06-05T08:58:51;4.25;;;2.40;;
39822;SDS011;25499;53.958;10.970;2023-06-05T09:01:19;4.32;;;2.00;;
39822;SDS011;25499;53.958;10.970;2023-06-05T09:03:46;5.88;;;2.50;;
39822;SDS011;25499;53.958;10.970;2023-06-05T09:06:13;5.30;;;2.30;;
39822;SDS011;25499;53.958;10.970;2023-06-05T09:08:39;9.40;;;2.08;;
39822;SDS011;25499;53.958;10.970;2023-06-05T09:11:26;5.43;;;2.00;;
39822;SDS011;25499;53.958;10.970;2023-06-05T09:13:54;6.32;;;2.03;;
39822;SDS011;25499;53.958;10.970;2023-06-05T09:16:23;5.38;;;2.40;;
39822;SDS011;25499;53.958;10.970;2023-06-05T09:18:59;2.58;;;1.58;;
39822;SDS011;25499;53.958;10.970;2023-06-05T09:21:26;5.20;;;2.10;;
39822;SDS011;25499;53.958;10.970;2023-06-05T09:24:14;4.50;;;1.90;;
39822;SDS011;25499;53.958;10.970;2023-06-05T09:26:47;3.92;;;1.73;;
39822;SDS011;25499;53.958;10.970;2023-06-05T09:29:25;4.20;;;1.77;;
39822;SDS011;25499;53.958;10.970;2023-06-05T09:31:53;4.10;;;1.70;;
39822;SDS011;25499;53.958;10.970;2023-06-05T09:34:23;4.75;;;1.95;;
39822;SDS011;25499;53.958;10.970;2023-06-05T09:36:51;9.05;;;1.98;;
39822;SDS011;25499;53.958;10.970;2023-06-05T09:39:20;14.20;;;2.33;;
39822;SDS011;25499;53.958;10.970;2023-06-05T09:45:10;3.55;;;1.80;;
39822;SDS011;25499;53.958;10.970;2023-06-05T09:47:37;7.57;;;2.10;;
39822;SDS011;25499;53.958;10.970;2023-06-05T09:50:04;2.70;;;1.73;;
39822;SDS011;25499;53.958;10.970;2023-06-05T09:52:31;5.03;;;1.70;;
39822;SDS011;25499;53.958;10.970;2023-06-05T09:55:03;8.93;;;2.28;;
39822;SDS011;25499;53.958;10.970;2023-06-05T09:57:32;4.60;;;2.10;;
39822;SDS011;25499;53.958;10.970;2023-06-05T10:00:00;4.78;;;2.03;;
39822;SDS011;25499;53.958;10.970;2023-06-05T10:02:35;6.00;;;1.92;;
39822;SDS011;25499;53.958;10.970;2023-06-05T10:05:05;3.55;;;1.70;;
39822;SDS011;25499;53.958;10.970;2023-06-05T10:07:35;4.00;;;1.80;;
39822;SDS011;25499;53.958;10.970;2023-06-05T10:10:04;4.68;;;2.03;;
39822;SDS011;25499;53.958;10.970;2023-06-05T10:12:33;6.22;;;2.00;;
39822;SDS011;25499;53.958;10.970;2023-06-05T10:15:00;5.03;;;1.80;;
39822;SDS011;25499;53.958;10.970;2023-06-05T10:17:28;3.33;;;1.90;;
39822;SDS011;25499;53.958;10.970;2023-06-05T10:19:57;2.42;;;1.60;;
39822;SDS011;25499;53.958;10.970;2023-06-05T10:22:25;3.75;;;1.70;;
39822;SDS011;25499;53.958;10.970;2023-06-05T10:24:54;2.60;;;1.60;;
39822;SDS011;25499;53.958;10.970;2023-06-05T10:33:25;5.60;;;1.58;;
39822;SDS011;25499;53.958;10.970;2023-06-05T10:36:13;22.35;;;2.25;;
39822;SDS011;25499;53.958;10.970;2023-06-05T10:38:51;2.53;;;1.55;;
39822;SDS011;25499;53.958;10.970;2023-06-05T10:41:20;4.22;;;1.92;;
39822;SDS011;25499;53.958;10.970;2023-06-05T10:43:49;5.72;;;2.00;;
39822;SDS011;25499;53.958;10.970;2023-06-05T10:46:28;4.18;;;2.03;;
39822;SDS011;25499;53.958;10.970;2023-06-05T10:51:38;3.20;;;1.67;;
39822;SDS011;25499;53.958;10.970;2023-06-05T10:54:08;7.38;;;1.60;;
39822;SDS011;25499;53.958;10.970;2023-06-05T10:56:53;3.00;;;1.50;;
39822;SDS011;25499;53.958;10.970;2023-06-05T10:59:22;4.35;;;1.60;;
39822;SDS011;25499;53.958;10.970;2023-06-05T11:05:04;3.53;;;1.58;;
39822;SDS011;25499;53.958;10.970;2023-06-05T11:07:41;2.95;;;1.60;;
39822;SDS011;25499;53.958;10.970;2023-06-05T11:10:11;3.63;;;1.80;;
39822;SDS011;25499;53.958;10.970;2023-06-05T11:12:55;2.33;;;1.50;;
39822;SDS011;25499;53.958;10.970;2023-06-05T11:15:35;8.63;;;2.10;;
39822;SDS011;25499;53.958;10.970;2023-06-05T11:20:56;4.22;;;1.50;;
39822;SDS011;25499;53.958;10.970;2023-06-05T11:23:25;9.45;;;1.80;;
39822;SDS011;25499;53.958;10.970;2023-06-05T11:25:53;3.67;;;1.85;;
39822;SDS011;25499;53.958;10.970;2023-06-05T11:28:41;4.60;;;1.90;;
39822;SDS011;25499;53.958;10.970;2023-06-05T11:31:09;2.28;;;1.52;;
39822;SDS011;25499;53.958;10.970;2023-06-05T11:33:37;4.28;;;2.22;;
39822;SDS011;25499;53.958;10.970;2023-06-05T15:26:30;5.70;;;2.47;;
39822;SDS011;25499;53.958;10.970;2023-06-05T15:28:57;5.15;;;1.83;;
39822;SDS011;25499;53.958;10.970;2023-06-05T15:31:24;3.13;;;1.85;;
39822;SDS011;25499;53.958;10.970;2023-06-05T15:33:50;7.10;;;2.15;;
39822;SDS011;25499;53.958;10.970;2023-06-05T15:36:17;2.53;;;1.85;;
39822;SDS011;25499;53.958;10.970;2023-06-05T15:38:44;2.65;;;2.00;;
39822;SDS011;25499;53.958;10.970;2023-06-05T15:41:11;9.52;;;2.05;;
39822;SDS011;25499;53.958;10.970;2023-06-05T15:43:40;3.45;;;1.80;;
39822;SDS011;25499;53.958;10.970;2023-06-05T15:46:07;3.90;;;1.90;;
39822;SDS011;25499;53.958;10.970;2023-06-05T15:48:34;7.13;;;1.95;;
39822;SDS011;25499;53.958;10.970;2023-06-05T15:51:01;3.85;;;2.17;;
39822;SDS011;25499;53.958;10.970;2023-06-05T15:53:29;4.05;;;2.00;;
39822;SDS011;25499;53.958;10.970;2023-06-05T15:55:56;3.05;;;2.03;;
39822;SDS011;25499;53.958;10.970;2023-06-05T15:58:23;3.95;;;2.50;;
39822;SDS011;25499;53.958;10.970;2023-06-05T16:00:51;3.35;;;1.98;;
39822;SDS011;25499;53.958;10.970;2023-06-05T16:03:17;3.90;;;2.05;;
39822;SDS011;25499;53.958;10.970;2023-06-05T16:05:45;4.88;;;2.20;;
39822;SDS011;25499;53.958;10.970;2023-06-05T16:08:12;3.47;;;2.13;;
39822;SDS011;25499;53.958;10.970;2023-06-05T16:10:38;2.90;;;2.10;;
39822;SDS011;25499;53.958;10.970;2023-06-05T16:13:05;7.30;;;2.70;;
39822;SDS011;25499;53.958;10.970;2023-06-05T16:15:34;4.13;;;2.20;;
39822;SDS011;25499;53.958;10.970;2023-06-05T16:18:03;4.65;;;2.08;;
39822;SDS011;25499;53.958;10.970;2023-06-05T16:20:30;4.18;;;2.13;;
39822;SDS011;25499;53.958;10.970;2023-06-05T16:22:58;4.25;;;2.47;;
39822;SDS011;25499;53.958;10.970;2023-06-05T16:25:25;3.83;;;2.10;;
39822;SDS011;25499;53.958;10.970;2023-06-05T16:27:51;6.93;;;2.40;;
39822;SDS011;25499;53.958;10.970;2023-06-05T16:30:18;5.07;;;2.30;;
39822;SDS011;25499;53.958;10.970;2023-06-05T16:32:45;3.08;;;2.13;;
39822;SDS011;25499;53.958;10.970;2023-06-05T16:35:14;6.88;;;2.33;;
39822;SDS011;25499;53.958;10.970;2023-06-05T16:37:42;4.63;;;2.25;;
39822;SDS011;25499;53.958;10.970;2023-06-05T16:40:09;5.85;;;2.33;;
39822;SDS011;25499;53.958;10.970;2023-06-05T16:42:36;4.38;;;2.15;;
39822;SDS011;25499;53.958;10.970;2023-06-05T16:45:03;5.57;;;2.35;;
39822;SDS011;25499;53.958;10.970;2023-06-05T16:47:30;5.70;;;2.30;;
39822;SDS011;25499;53.958;10.970;2023-06-05T16:49:57;5.85;;;2.45;;
39822;SDS011;25499;53.958;10.970;2023-06-05T16:52:25;5.63;;;2.30;;
39822;SDS011;25499;53.958;10.970;2023-06-05T16:54:52;3.78;;;2.28;;
39822;SDS011;25499;53.958;10.970;2023-06-05T16:57:19;5.43;;;2.30;;
39822;SDS011;25499;53.958;10.970;2023-06-05T16:59:45;5.30;;;2.72;;
39822;SDS011;25499;53.958;10.970;2023-06-05T17:02:12;4.47;;;2.00;;
39822;SDS011;25499;53.958;10.970;2023-06-05T17:04:39;6.55;;;2.75;;
39822;SDS011;25499;53.958;10.970;2023-06-05T17:07:06;3.85;;;2.35;;
39822;SDS011;25499;53.958;10.970;2023-06-05T17:09:34;6.63;;;2.22;;
39822;SDS011;25499;53.958;10.970;2023-06-05T17:12:00;5.28;;;2.60;;
39822;SDS011;25499;53.958;10.970;2023-06-05T17:14:27;11.18;;;2.50;;
39822;SDS011;25499;53.958;10.970;2023-06-05T17:16:54;7.03;;;2.80;;
39822;SDS011;25499;53.958;10.970;2023-06-05T17:19:21;4.18;;;2.38;;
39822;SDS011;25499;53.958;10.970;2023-06-05T17:21:48;5.75;;;2.55;;
39822;SDS011;25499;53.958;10.970;2023-06-05T17:24:14;3.25;;;2.30;;
39822;SDS011;25499;53.958;10.970;2023-06-05T17:26:42;6.57;;;2.28;;
39822;SDS011;25499;53.958;10.970;2023-06-05T17:29:09;6.72;;;2.60;;
39822;SDS011;25499;53.958;10.970;2023-06-05T17:31:36;5.22;;;2.45;;
39822;SDS011;25499;53.958;10.970;2023-06-05T17:34:03;6.30;;;2.47;;
39822;SDS011;25499;53.958;10.970;2023-06-05T17:36:29;7.65;;;2.65;;
39822;SDS011;25499;53.958;10.970;2023-06-05T17:38:56;6.85;;;2.55;;
39822;SDS011;25499;53.958;10.970;2023-06-05T17:41:23;7.47;;;2.95;;
39822;SDS011;25499;53.958;10.970;2023-06-05T17:43:51;5.53;;;2.30;;
39822;SDS011;25499;53.958;10.970;2023-06-05T17:46:19;6.70;;;2.10;;
39822;SDS011;25499;53.958;10.970;2023-06-05T17:48:46;4.80;;;2.30;;
39822;SDS011;25499;53.958;10.970;2023-06-05T17:51:13;4.93;;;2.70;;
39822;SDS011;25499;53.958;10.970;2023-06-05T17:53:40;3.55;;;2.47;;
39822;SDS011;25499;53.958;10.970;2023-06-05T17:56:08;3.65;;;2.17;;
39822;SDS011;25499;53.958;10.970;2023-06-05T17:58:35;4.30;;;2.35;;
39822;SDS011;25499;53.958;10.970;2023-06-05T18:01:04;4.00;;;2.35;;
39822;SDS011;25499;53.958;10.970;2023-06-05T18:03:30;3.97;;;2.05;;
39822;SDS011;25499;53.958;10.970;2023-06-05T18:05:57;6.13;;;2.10;;
39822;SDS011;25499;53.958;10.970;2023-06-05T18:08:24;3.05;;;1.90;;
39822;SDS011;25499;53.958;10.970;2023-06-05T18:10:51;4.70;;;2.10;;
39822;SDS011;25499;53.958;10.970;2023-06-05T18:13:17;6.10;;;2.03;;
39822;SDS011;25499;53.958;10.970;2023-06-05T18:15:44;2.22;;;2.03;;
39822;SDS011;25499;53.958;10.970;2023-06-05T18:18:12;6.28;;;2.38;;
39822;SDS011;25499;53.958;10.970;2023-06-05T18:20:40;4.63;;;2.40;;
39822;SDS011;25499;53.958;10.970;2023-06-05T18:23:07;4.20;;;2.47;;
39822;SDS011;25499;53.958;10.970;2023-06-05T18:25:36;4.40;;;2.20;;
39822;SDS011;25499;53.958;10.970;2023-06-05T18:28:02;3.05;;;2.05;;
39822;SDS011;25499;53.958;10.970;2023-06-05T18:30:29;3.67;;;2.38;;
39822;SDS011;25499;53.958;10.970;2023-06-05T18:32:56;3.03;;;2.03;;
39822;SDS011;25499;53.958;10.970;2023-06-05T18:35:24;2.83;;;2.00;;
39822;SDS011;25499;53.958;10.970;2023-06-05T18:37:51;5.30;;;2.45;;
39822;SDS011;25499;53.958;10.970;2023-06-05T18:40:18;4.05;;;2.45;;
39822;SDS011;25499;53.958;10.970;2023-06-05T18:42:45;7.32;;;2.90;;
39822;SDS011;25499;53.958;10.970;2023-06-05T18:45:12;6.70;;;2.33;;
39822;SDS011;25499;53.958;10.970;2023-06-05T18:47:38;4.85;;;2.30;;
39822;SDS011;25499;53.958;10.970;2023-06-05T18:50:05;5.00;;;2.22;;
39822;SDS011;25499;53.958;10.970;2023-06-05T18:52:36;3.95;;;2.42;;
39822;SDS011;25499;53.958;10.970;2023-06-05T18:57:30;5.15;;;2.45;;
39822;SDS011;25499;53.958;10.970;2023-06-05T18:59:57;4.68;;;2.40;;
39822;SDS011;25499;53.958;10.970;2023-06-05T19:02:24;3.80;;;2.45;;
39822;SDS011;25499;53.958;10.970;2023-06-05T19:04:51;4.70;;;2.83;;
39822;SDS011;25499;53.958;10.970;2023-06-05T19:07:17;4.78;;;3.40;;
39822;SDS011;25499;53.958;10.970;2023-06-05T19:09:52;8.07;;;3.50;;
39822;SDS011;25499;53.958;10.970;2023-06-05T19:12:19;3.92;;;2.88;;
39822;SDS011;25499;53.958;10.970;2023-06-05T19:14:46;5.93;;;2.75;;
39822;SDS011;25499;53.958;10.970;2023-06-05T19:17:12;4.47;;;2.80;;
39822;SDS011;25499;53.958;10.970;2023-06-05T19:19:39;4.30;;;2.70;;
39822;SDS011;25499;53.958;10.970;2023-06-05T19:22:06;3.05;;;2.40;;
39822;SDS011;25499;53.958;10.970;2023-06-05T19:24:33;6.45;;;2.80;;
39822;SDS011;25499;53.958;10.970;2023-06-05T19:27:01;3.00;;;1.88;;
39822;SDS011;25499;53.958;10.970;2023-06-05T19:29:28;3.63;;;2.72;;
39822;SDS011;25499;53.958;10.970;2023-06-05T19:31:54;4.97;;;2.15;;
39822;SDS011;25499;53.958;10.970;2023-06-05T19:34:21;4.43;;;2.33;;
39822;SDS011;25499;53.958;10.970;2023-06-05T19:36:48;3.80;;;2.10;;
39822;SDS011;25499;53.958;10.970;2023-06-05T19:39:15;4.72;;;2.17;;
39822;SDS011;25499;53.958;10.970;2023-06-05T19:41:41;4.97;;;2.92;;
39822;SDS011;25499;53.958;10.970;2023-06-05T19:44:10;4.60;;;2.83;;
39822;SDS011;25499;53.958;10.970;2023-06-05T19:46:38;9.07;;;2.83;;
39822;SDS011;25499;53.958;10.970;2023-06-05T19:49:05;6.90;;;3.20;;
39822;SDS011;25499;53.958;10.970;2023-06-05T19:51:34;4.47;;;2.40;;
39822;SDS011;25499;53.958;10.970;2023-06-05T19:54:02;4.72;;;2.72;;
39822;SDS011;25499;53.958;10.970;2023-06-05T19:56:30;6.32;;;2.75;;
39822;SDS011;25499;53.958;10.970;2023-06-05T19:58:57;5.70;;;3.08;;
39822;SDS011;25499;53.958;10.970;2023-06-05T20:01:25;5.15;;;2.92;;
39822;SDS011;25499;53.958;10.970;2023-06-05T20:03:52;3.53;;;2.80;;
39822;SDS011;25499;53.958;10.970;2023-06-05T20:06:18;5.28;;;3.40;;
39822;SDS011;25499;53.958;10.970;2023-06-05T20:08:46;4.57;;;3.30;;
39822;SDS011;25499;53.958;10.970;2023-06-05T20:11:15;4.05;;;2.95;;
39822;SDS011;25499;53.958;10.970;2023-06-05T20:13:42;5.28;;;3.30;;
39822;SDS011;25499;53.958;10.970;2023-06-05T20:16:08;6.25;;;2.83;;
39822;SDS011;25499;53.958;10.970;2023-06-05T20:18:37;5.32;;;3.20;;
39822;SDS011;25499;53.958;10.970;2023-06-05T20:21:04;5.95;;;2.65;;
39822;SDS011;25499;53.958;10.970;2023-06-05T20:23:31;8.55;;;2.85;;
39822;SDS011;25499;53.958;10.970;2023-06-05T20:25:59;5.63;;;2.70;;
39822;SDS011;25499;53.958;10.970;2023-06-05T20:28:26;4.28;;;2.83;;
39822;SDS011;25499;53.958;10.970;2023-06-05T20:30:53;5.55;;;2.95;;
